Time;durP1;ratioP1;P1;durP2;ratioP2;P2;SDS_P1;SDS_P2;PMS_P1;PMS_P2;Temp;Humidity;BMP_temperature;BMP_pressure;BME280_temperature;BME280_humidity;BME280_pressure;Samples;Min_cycle;Max_cycle;Signal;HPM_P1;HPM_P2
2023/08/15 00:05:36;;;;;;;5.05;4.70;;;;;;;-144.30;39.41;83705.09;5109671;28;20201;-53
2023/08/15 00:08:53;;;;;;;5.32;4.88;;;;;;;-144.30;38.88;83778.63;5108646;28;20190;-56
2023/08/15 00:11:58;;;;;;;6.43;5.40;;;;;;;-144.30;38.83;83750.81;5110330;28;20194;-56
2023/08/15 00:14:37;;;;;;;8.57;5.75;;;;;;;-144.30;38.97;83760.75;5108861;28;20198;-51
2023/08/15 00:17:24;;;;;;;6.63;6.03;;;;;;;-144.30;39.00;83738.88;5110108;28;20673;-51
2023/08/15 00:20:37;;;;;;;9.27;6.13;;;;;;;-144.30;38.99;83806.44;5108848;28;20263;-55
2023/08/15 00:26:58;;;;;;;6.57;5.70;;;;;;;-144.30;38.83;83794.53;5109356;28;20593;-56
2023/08/15 00:29:50;;;;;;;6.03;5.18;;;;;;;-144.30;38.65;83774.66;5109632;28;20200;-52
2023/08/15 00:32:49;;;;;;;5.82;5.40;;;;;;;-144.30;38.47;83810.41;5110087;28;20255;-51
2023/08/15 00:35:50;;;;;;;5.70;5.30;;;;;;;-144.30;38.45;83802.47;5110030;28;20777;-50
2023/08/15 00:38:57;;;;;;;6.63;5.35;;;;;;;-144.30;38.46;83768.69;5110053;28;20224;-56
2023/08/15 00:41:50;;;;;;;5.65;5.25;;;;;;;-144.30;38.45;83776.66;5109222;28;20226;-50
2023/08/15 00:47:46;;;;;;;6.57;5.25;;;;;;;-144.30;38.81;83802.47;5109983;28;20677;-55
2023/08/15 00:50:49;;;;;;;5.30;5.00;;;;;;;-144.30;39.00;83802.47;5110030;28;20183;-55
2023/08/15 00:53:57;;;;;;;6.32;5.72;;;;;;;-144.30;39.07;83790.56;5109627;28;20251;-56
2023/08/15 00:56:59;;;;;;;5.68;5.28;;;;;;;-144.30;39.19;83780.63;5105164;28;20234;-56
2023/08/15 01:00:01;;;;;;;5.78;5.25;;;;;;;-144.30;39.16;83808.44;5109694;28;20252;-55
2023/08/15 01:03:05;;;;;;;5.97;5.57;;;;;;;-144.30;38.95;83834.25;5109267;28;20305;-51
2023/08/15 01:05:53;;;;;;;6.60;5.75;;;;;;;-144.30;38.78;83764.72;5109462;28;20198;-50
2023/08/15 01:08:51;;;;;;;6.30;5.72;;;;;;;-144.30;39.00;83754.78;5107447;28;20195;-49
2023/08/15 01:11:56;;;;;;;6.38;5.90;;;;;;;-144.30;39.19;83804.47;5110009;28;20202;-57
2023/08/15 01:15:20;;;;;;;;;;;;;;;;;;;;;
2023/08/15 01:18:08;;;;;;;6.22;5.72;;;;;;;-144.30;39.27;83820.34;5103457;28;20230;-56
2023/08/15 01:20:54;;;;;;;6.28;5.18;;;;;;;-144.30;39.44;83818.38;5109323;28;20202;-52
2023/08/15 01:24:35;;;;;;;5.85;5.45;;;;;;;-144.30;39.35;83852.16;5108322;28;20763;-51
2023/08/15 01:30:39;;;;;;;5.97;5.57;;;;;;;-144.30;39.62;83846.19;5107248;28;20199;-56
2023/08/15 01:36:55;;;;;;;6.95;5.75;;;;;;;-144.30;39.40;83862.09;5108062;28;20206;-55
2023/08/15 01:46:06;;;;;;;7.57;6.13;;;;;;;-144.30;40.14;83844.19;5112464;28;20782;-51
2023/08/15 01:49:12;;;;;;;10.25;6.10;;;;;;;-144.30;40.44;83854.13;5112954;28;20678;-51
2023/08/15 01:52:03;;;;;;;6.50;5.97;;;;;;;-144.30;40.35;83852.16;5111423;28;20191;-52
2023/08/15 02:01:49;;;;;;;6.38;5.78;;;;;;;-144.30;39.31;83782.59;5113076;28;20591;-56
2023/08/15 02:04:44;;;;;;;6.63;5.68;;;;;;;-144.30;39.62;83804.47;5106262;28;20202;-55
2023/08/15 02:07:43;;;;;;;8.00;5.80;;;;;;;-144.30;39.43;83788.56;5107920;28;20190;-51
2023/08/15 02:10:57;;;;;;;;;;;;;;;;;;;;;
2023/08/15 02:16:53;;;;;;;7.75;6.95;;;;;;;-144.30;39.31;83822.34;5110747;28;20195;-56
2023/08/15 02:19:54;;;;;;;6.78;5.70;;;;;;;-144.30;39.54;83778.63;5112384;28;20199;-55
2023/08/15 02:23:02;;;;;;;5.97;5.20;;;;;;;-144.30;39.60;83822.34;5112085;28;20224;-55
2023/08/15 02:32:02;;;;;;;5.97;5.47;;;;;;;-144.30;40.17;83836.25;5110097;28;20205;-51
2023/08/15 02:35:18;;;;;;;6.28;5.68;;;;;;;-144.30;40.51;83836.25;5112304;28;20198;-55
2023/08/15 02:41:25;;;;;;;6.55;5.90;;;;;;;-144.30;40.62;83804.47;5112294;28;20194;-51
2023/08/15 02:46:55;;;;;;;8.80;6.32;;;;;;;-144.30;40.88;83872.03;5110919;28;20195;-51
2023/08/15 02:49:49;;;;;;;6.43;5.93;;;;;;;-144.30;40.96;83854.13;5112140;28;20190;-56
2023/08/15 02:52:52;;;;;;;7.18;6.07;;;;;;;-144.30;41.08;83897.84;5108010;28;20190;-56
2023/08/15 02:55:55;;;;;;;6.55;5.90;;;;;;;-144.30;41.06;83858.09;5112021;28;20692;-56
2023/08/15 02:59:07;;;;;;;6.68;6.18;;;;;;;-144.30;41.21;83905.81;5107456;28;20738;-56
2023/08/15 03:02:13;;;;;;;6.95;6.25;;;;;;;-144.30;41.39;83879.97;5111804;28;20290;-51
2023/08/15 03:04:58;;;;;;;9.23;7.07;;;;;;;-144.30;41.89;83903.81;5110505;28;20615;-52
2023/08/15 03:07:46;;;;;;;11.02;9.90;;;;;;;-144.30;41.87;83927.66;5111586;28;20194;-50
2023/08/15 03:10:26;;;;;;;7.53;6.93;;;;;;;-144.30;41.97;83897.84;5110427;28;20198;-55
2023/08/15 03:13:04;;;;;;;7.75;6.95;;;;;;;-144.30;41.93;83899.84;5111264;28;20198;-55
2023/08/15 03:15:34;;;;;;;8.90;7.15;;;;;;;-144.30;42.17;83885.94;5111259;28;20210;-50
2023/08/15 03:18:31;;;;;;;8.05;6.57;;;;;;;-144.30;41.89;83879.97;5110880;28;20223;-51
2023/08/15 03:21:39;;;;;;;8.52;7.82;;;;;;;-144.30;41.62;83941.56;5109822;28;20195;-55
2023/08/15 03:27:31;;;;;;;9.43;7.28;;;;;;;-144.30;41.77;83919.72;5110056;28;20203;-54
2023/08/15 03:30:07;;;;;;;11.18;7.40;;;;;;;-144.30;41.96;83899.84;5110297;28;20229;-55
2023/08/15 03:32:42;;;;;;;9.10;8.23;;;;;;;-144.30;41.87;83929.66;5110412;28;20690;-56
2023/08/15 03:35:33;;;;;;;9.27;7.68;;;;;;;-144.30;41.97;83909.78;5109461;28;20255;-50
2023/08/15 03:38:23;;;;;;;11.93;7.00;;;;;;;-144.30;42.14;83929.66;5110027;28;20228;-55
2023/08/15 03:41:06;;;;;;;10.90;7.10;;;;;;;-144.30;42.15;83905.81;5105965;28;20203;-56
2023/08/15 03:43:45;;;;;;;10.15;7.57;;;;;;;-144.30;42.50;83929.66;5110699;28;20697;-55
2023/08/15 03:46:26;;;;;;;10.40;6.55;;;;;;;-144.30;42.56;83830.28;5109682;28;20255;-55
2023/08/15 03:49:02;;;;;;;9.13;7.13;;;;;;;-144.30;42.52;83929.66;5100183;28;20280;-56
2023/08/15 03:51:36;;;;;;;8.45;7.45;;;;;;;-144.30;42.66;83881.97;5110203;28;20285;-56
2023/08/15 03:54:08;;;;;;;10.25;9.32;;;;;;;-144.30;42.90;83876.00;5109818;28;20742;-51
2023/08/15 03:56:47;;;;;;;9.13;7.75;;;;;;;-144.30;42.89;83901.81;5110320;28;20238;-51
2023/08/15 03:59:22;;;;;;;21.65;9.93;;;;;;;-144.30;43.13;83929.66;5110222;28;20251;-56
2023/08/15 04:01:56;;;;;;;9.00;7.40;;;;;;;-144.30;43.24;83929.66;5110551;28;20197;-56
2023/08/15 04:04:27;;;;;;;18.55;13.25;;;;;;;-144.30;43.04;83937.59;5110415;28;20693;-56
2023/08/15 04:07:02;;;;;;;8.80;7.80;;;;;;;-144.30;43.29;83903.81;5109960;28;20209;-55
2023/08/15 04:09:39;;;;;;;8.70;7.75;;;;;;;-144.30;43.37;83834.25;5108630;28;20204;-49
2023/08/15 04:12:11;;;;;;;10.05;8.00;;;;;;;-144.30;43.50;83901.81;5110296;28;20708;-57
2023/08/15 04:14:44;;;;;;;13.00;10.18;;;;;;;-144.30;43.42;83927.66;5109887;28;20232;-57
2023/08/15 04:17:18;;;;;;;8.05;7.35;;;;;;;-144.30;43.31;83933.63;5108913;28;20202;-56
2023/08/15 04:19:51;;;;;;;15.63;9.48;;;;;;;-144.30;43.41;83929.66;5109301;28;20199;-56
2023/08/15 04:22:44;;;;;;;13.77;7.65;;;;;;;-144.30;43.74;83971.38;5109612;28;20199;-50
2023/08/15 04:25:41;;;;;;;9.25;8.20;;;;;;;-144.30;44.04;83949.50;5108149;28;20685;-50
2023/08/15 04:28:27;;;;;;;13.77;8.70;;;;;;;-144.30;44.15;83991.25;5108953;28;20202;-52
2023/08/15 04:31:21;;;;;;;10.50;7.47;;;;;;;-144.30;44.08;83961.44;5107214;28;20202;-51
2023/08/15 04:37:01;;;;;;;8.93;7.90;;;;;;;-144.30;44.08;83963.44;5107944;28;20696;-56
2023/08/15 04:39:36;;;;;;;11.93;7.70;;;;;;;-144.30;44.16;84013.09;5107937;28;20224;-51
2023/08/15 04:42:18;;;;;;;12.43;7.97;;;;;;;-144.30;44.58;83973.38;5106905;28;20196;-50
2023/08/15 04:44:52;;;;;;;13.20;8.50;;;;;;;-144.30;45.11;83987.28;5106385;28;20281;-56
2023/08/15 04:47:29;;;;;;;11.52;8.93;;;;;;;-144.30;45.56;83961.44;5108571;28;20190;-51
2023/08/15 04:53:00;;;;;;;9.98;7.70;;;;;;;-144.30;45.02;83965.41;5099848;28;20222;-51
2023/08/15 04:55:28;;;;;;;13.13;7.85;;;;;;;-144.30;44.84;83969.38;5109584;28;20647;-56
2023/08/15 04:57:58;;;;;;;8.48;7.45;;;;;;;-144.30;44.09;83921.69;5109064;28;20316;-56
2023/08/15 05:00:26;;;;;;;8.80;7.20;;;;;;;-144.30;44.00;83919.72;5109695;28;20198;-56
2023/08/15 05:02:56;;;;;;;10.80;7.15;;;;;;;-144.30;43.96;83955.47;5109630;28;20661;-51
2023/08/15 05:05:25;;;;;;;11.27;7.05;;;;;;;-144.30;44.08;83905.81;5109718;28;20285;-56
2023/08/15 05:07:55;;;;;;;11.10;6.93;;;;;;;-144.30;43.93;83927.66;5109030;28;20195;-56
2023/08/15 05:10:43;;;;;;;7.40;6.75;;;;;;;-144.30;43.90;83905.81;5089236;28;20589;-51
2023/08/15 05:13:27;;;;;;;11.30;7.65;;;;;;;-144.30;43.91;83929.66;5089381;28;20203;-51
2023/08/15 05:16:03;;;;;;;7.57;6.97;;;;;;;-144.30;43.66;83862.09;5086769;28;20201;-49
2023/08/15 05:18:49;;;;;;;7.57;6.75;;;;;;;-144.30;43.56;83935.59;5091428;28;20237;-56
2023/08/15 05:21:39;;;;;;;11.27;7.55;;;;;;;-144.30;43.75;83949.50;5093195;28;20286;-56
2023/08/15 05:24:12;;;;;;;9.93;6.93;;;;;;;-144.30;43.52;83923.69;5093092;28;20209;-56
2023/08/15 05:26:51;;;;;;;8.43;6.90;;;;;;;-144.30;43.54;83921.69;5105882;28;20199;-55
2023/08/15 05:29:34;;;;;;;15.52;7.82;;;;;;;-144.30;43.52;83919.72;5113242;28;20246;-57
2023/08/15 05:32:17;;;;;;;15.75;13.50;;;;;;;-144.30;43.83;83913.75;5113712;28;20226;-57
2023/08/15 05:35:04;;;;;;;17.25;10.38;;;;;;;-144.30;43.55;83925.66;5110382;28;20190;-57
2023/08/15 05:37:47;;;;;;;11.73;8.98;;;;;;;-144.30;43.85;83925.66;5111957;28;20198;-57
2023/08/15 05:40:34;;;;;;;13.77;10.05;;;;;;;-144.30;44.04;83897.84;5109726;28;20623;-57
2023/08/15 05:43:11;;;;;;;9.32;8.43;;;;;;;-144.30;44.08;83874.00;5111491;28;20198;-57
2023/08/15 05:46:02;;;;;;;11.85;7.45;;;;;;;-144.30;44.26;83945.53;5109353;28;20272;-51
2023/08/15 05:49:09;;;;;;;;;;;;;;;;;;;;;
2023/08/15 05:51:49;;;;;;;24.20;13.88;;;;;;;-144.30;44.60;83921.69;5110020;28;20191;-55
2023/08/15 05:54:16;;;;;;;17.17;8.60;;;;;;;-144.30;44.74;83909.78;5108584;28;20191;-45
2023/08/15 05:56:49;;;;;;;11.02;7.07;;;;;;;-144.30;44.71;83895.88;5112312;28;20222;-46
2023/08/15 05:59:16;;;;;;;12.88;7.53;;;;;;;-144.30;44.62;83919.72;5109710;28;20215;-55
2023/08/15 06:01:45;;;;;;;16.75;7.20;;;;;;;-144.30;44.67;83893.88;5112443;28;20222;-45
2023/08/15 06:04:16;;;;;;;19.25;7.57;;;;;;;-144.30;44.83;83903.81;5111786;28;20206;-44
2023/08/15 06:06:48;;;;;;;13.57;8.27;;;;;;;-144.30;45.11;83977.34;5112172;28;20259;-45
2023/08/15 06:09:17;;;;;;;13.55;7.13;;;;;;;-144.30;45.22;83927.66;5109734;28;20194;-46
2023/08/15 06:11:50;;;;;;;9.38;6.55;;;;;;;-144.30;44.88;83915.75;5112340;28;20206;-55
2023/08/15 06:14:25;;;;;;;17.77;12.85;;;;;;;-144.30;45.08;83933.63;5112546;28;20205;-44
2023/08/15 06:17:04;;;;;;;12.75;7.75;;;;;;;-144.30;44.83;83913.75;5112433;28;20307;-54
2023/08/15 06:19:36;;;;;;;15.93;7.50;;;;;;;-144.30;44.80;83931.63;5112319;28;20226;-56
2023/08/15 06:22:07;;;;;;;18.75;8.70;;;;;;;-144.30;44.93;83927.66;5111278;28;20194;-57
2023/08/15 06:24:40;;;;;;;19.20;10.35;;;;;;;-144.30;45.00;83917.72;5112152;28;20286;-45
2023/08/15 06:27:12;;;;;;;17.33;10.90;;;;;;;-144.30;45.08;83885.94;5112447;28;20286;-55
2023/08/15 06:29:46;;;;;;;30.20;15.50;;;;;;;-144.30;44.81;83933.63;5111752;28;20190;-47
2023/08/15 06:32:32;;;;;;;12.82;8.40;;;;;;;-144.30;44.96;83846.19;5111628;28;20644;-45
2023/08/15 06:35:05;;;;;;;10.02;7.18;;;;;;;-144.30;44.48;83891.88;5111353;28;20183;-45
2023/08/15 06:37:38;;;;;;;8.52;6.85;;;;;;;-144.30;44.52;83895.88;5111754;28;20247;-55
2023/08/15 06:40:08;;;;;;;9.18;7.55;;;;;;;-144.30;44.41;83895.88;5108537;28;21070;-55
2023/08/15 06:42:38;;;;;;;14.07;8.38;;;;;;;-144.30;44.17;83862.09;5112016;28;20198;-45
2023/08/15 06:45:15;;;;;;;11.23;8.57;;;;;;;-144.30;44.30;83854.13;5112503;28;20564;-44
2023/08/15 06:47:50;;;;;;;9.80;6.70;;;;;;;-144.30;44.17;83858.09;5111410;28;20275;-56
2023/08/15 06:50:20;;;;;;;9.95;6.80;;;;;;;-144.30;43.91;83850.16;5111754;28;20190;-56
2023/08/15 06:52:54;;;;;;;8.20;6.75;;;;;;;-144.30;44.08;84501.97;5112171;28;20688;-55
2023/08/15 06:55:23;;;;;;;12.02;8.48;;;;;;;-144.30;43.97;83834.25;5111910;28;20563;-56
2023/08/15 06:57:56;;;;;;;16.85;8.13;;;;;;;-144.30;43.58;83844.19;5111645;28;20616;-55
2023/08/15 07:00:25;;;;;;;16.77;8.75;;;;;;;-144.30;43.50;83794.53;5111739;28;20722;-55
2023/08/15 07:02:56;;;;;;;12.57;7.72;;;;;;;-144.30;43.30;83808.44;5110723;28;20274;-44
2023/08/15 07:05:25;;;;;;;13.93;7.80;;;;;;;-144.30;43.40;83790.56;5111423;28;20274;-55
2023/08/15 07:07:56;;;;;;;16.23;8.35;;;;;;;-144.30;43.47;83824.31;5112064;28;20209;-54
2023/08/15 07:10:26;;;;;;;23.50;8.20;;;;;;;-144.30;43.76;83806.44;5110968;28;20198;-45
2023/08/15 07:12:56;;;;;;;14.18;7.32;;;;;;;-144.30;43.50;83778.63;5111071;28;20226;-45
2023/08/15 07:15:30;;;;;;;16.55;7.75;;;;;;;-144.30;43.61;83798.50;5111354;28;20671;-55
2023/08/15 07:17:59;;;;;;;28.10;8.18;;;;;;;-144.30;43.60;83633.59;5110912;28;20768;-55
2023/08/15 07:20:30;;;;;;;20.33;7.95;;;;;;;-144.30;43.80;83826.31;5111286;28;20694;-55
2023/08/15 07:22:57;;;;;;;15.75;8.40;;;;;;;-144.30;43.96;83860.09;5111602;28;20682;-56
2023/08/15 07:25:28;;;;;;;21.40;8.63;;;;;;;-144.30;44.12;83810.41;5111489;28;20194;-55
2023/08/15 07:27:57;;;;;;;14.45;7.35;;;;;;;-144.30;44.14;83852.16;5111096;28;20684;-43
2023/08/15 07:30:30;;;;;;;18.33;7.80;;;;;;;-144.30;44.20;83818.38;5111057;28;20191;-45
2023/08/15 07:33:02;;;;;;;16.90;6.95;;;;;;;-144.30;44.04;83782.59;5110353;28;20233;-56
2023/08/15 07:35:31;;;;;;;19.13;7.00;;;;;;;-144.30;44.23;83800.50;5110623;28;20255;-45
2023/08/15 07:38:01;;;;;;;9.00;6.50;;;;;;;-144.30;44.08;83774.66;5111094;28;20235;-46
2023/08/15 07:40:30;;;;;;;27.02;8.10;;;;;;;-144.30;44.14;83780.63;5110011;28;20584;-54
2023/08/15 07:43:01;;;;;;;16.50;8.07;;;;;;;-144.30;44.52;83794.53;5110311;28;20290;-56
2023/08/15 07:45:38;;;;;;;13.27;7.50;;;;;;;-144.30;44.46;83790.56;5110989;28;20202;-45
2023/08/15 07:48:11;;;;;;;18.15;8.60;;;;;;;-144.30;44.76;83794.53;5110887;28;20432;-46
2023/08/15 07:50:41;;;;;;;17.52;9.13;;;;;;;-144.30;44.76;83794.53;5110085;28;20200;-45
2023/08/15 07:53:12;;;;;;;17.00;8.30;;;;;;;-144.30;44.50;83790.56;5110521;28;20255;-55
2023/08/15 07:55:46;;;;;;;17.60;7.97;;;;;;;-144.30;44.76;83774.66;5106667;28;20194;-55
2023/08/15 07:58:17;;;;;;;10.68;7.68;;;;;;;-144.30;44.76;83742.88;5110296;28;20254;-46
2023/08/15 08:00:50;;;;;;;12.02;8.35;;;;;;;-144.30;44.74;83736.91;5109309;28;20218;-46
2023/08/15 08:03:26;;;;;;;17.38;8.90;;;;;;;-144.30;44.98;83754.78;5110209;28;20195;-45
2023/08/15 08:05:54;;;;;;;19.92;9.60;;;;;;;-144.30;45.13;83740.88;5109996;28;20201;-45
2023/08/15 08:08:25;;;;;;;16.20;9.73;;;;;;;-144.30;44.99;83726.97;5107622;28;20191;-45
2023/08/15 08:10:56;;;;;;;19.65;10.75;;;;;;;-144.30;45.23;83723.00;5109971;28;20191;-45
2023/08/15 08:13:27;;;;;;;19.75;10.93;;;;;;;-144.30;45.35;83744.84;5110522;28;20678;-45
2023/08/15 08:16:00;;;;;;;22.27;13.48;;;;;;;-144.30;45.17;83756.78;5110160;28;20198;-45
2023/08/15 08:18:40;;;;;;;27.90;15.90;;;;;;;-144.30;44.98;83715.03;5110250;28;20202;-55
2023/08/15 08:21:12;;;;;;;19.08;10.65;;;;;;;-144.30;44.76;83756.78;5110241;28;20186;-55
2023/08/15 08:23:50;;;;;;;18.25;11.05;;;;;;;-144.30;44.93;83715.03;5110025;28;20706;-54
2023/08/15 08:26:23;;;;;;;21.13;11.55;;;;;;;-144.30;45.03;83776.66;5110464;28;20722;-55
2023/08/15 08:28:57;;;;;;;12.45;11.15;;;;;;;-144.30;45.30;83762.72;5110211;28;20186;-45
2023/08/15 08:31:30;;;;;;;17.27;10.65;;;;;;;-144.30;45.51;83760.75;5110078;28;20203;-46
2023/08/15 08:34:02;;;;;;;14.35;10.25;;;;;;;-144.30;45.73;83806.44;5108404;28;20186;-56
2023/08/15 08:36:34;;;;;;;11.52;10.23;;;;;;;-144.30;45.97;83810.41;5109233;28;20263;-55
2023/08/15 08:39:37;;;;;;;25.63;9.68;;;;;;;-144.30;45.99;83756.78;5109078;28;20226;-56
2023/08/15 08:42:23;;;;;;;17.50;11.15;;;;;;;-144.30;46.05;83790.56;5109848;28;20202;-55
2023/08/15 08:45:18;;;;;;;10.93;8.35;;;;;;;-144.30;46.36;83758.75;5107806;28;20285;-56
2023/08/15 08:48:04;;;;;;;15.10;9.20;;;;;;;-144.30;46.69;83800.50;5106424;28;20198;-45
2023/08/15 08:50:50;;;;;;;13.35;8.85;;;;;;;-144.30;46.42;83794.53;5109689;28;20289;-45
2023/08/15 08:53:26;;;;;;;9.20;7.63;;;;;;;-144.30;46.24;83764.72;5109650;28;20201;-45
2023/08/15 08:59:35;;;;;;;9.85;7.20;;;;;;;-144.30;46.04;83770.69;5106993;28;20230;-45
2023/08/15 09:11:17;;;;;;;9.20;6.95;;;;;;;-144.30;45.66;83754.78;5109087;28;20264;-45
2023/08/15 09:13:49;;;;;;;8.75;7.90;;;;;;;-144.30;45.80;83772.66;5107936;28;20631;-55
2023/08/15 09:16:25;;;;;;;10.18;7.45;;;;;;;-144.30;45.97;83750.81;5109563;28;20198;-46
2023/08/15 09:18:56;;;;;;;11.65;7.32;;;;;;;-144.30;45.62;83754.78;5109682;28;20297;-45
2023/08/15 09:21:32;;;;;;;8.32;7.53;;;;;;;-144.30;45.39;83758.75;5109713;28;20590;-44
2023/08/15 09:24:12;;;;;;;10.50;6.80;;;;;;;-144.30;45.48;83750.81;5109380;28;20433;-55
2023/08/15 09:26:57;;;;;;;10.88;7.07;;;;;;;-144.30;45.32;83738.88;5109262;28;20570;-56
2023/08/15 09:29:40;;;;;;;10.95;7.32;;;;;;;-144.30;44.18;83709.09;5109765;28;20190;-55
2023/08/15 09:32:16;;;;;;;11.02;7.82;;;;;;;-144.30;44.25;83707.09;5101954;28;20240;-45
2023/08/15 09:34:47;;;;;;;18.15;7.90;;;;;;;-144.30;44.32;83742.88;5106108;28;20195;-45
2023/08/15 09:37:25;;;;;;;19.52;7.20;;;;;;;-144.30;43.66;83687.22;5109123;28;20666;-46
2023/08/15 09:40:04;;;;;;;11.27;7.40;;;;;;;-144.30;43.52;83738.88;5107489;28;20305;-46
2023/08/15 09:42:38;;;;;;;17.40;7.60;;;;;;;-144.30;43.41;83750.81;5107468;28;20195;-46
2023/08/15 09:45:11;;;;;;;11.80;7.22;;;;;;;-144.30;43.36;83687.22;5106503;28;20198;-55
2023/08/15 09:47:46;;;;;;;11.70;7.15;;;;;;;-144.30;43.31;83683.25;5103058;28;20287;-56
2023/08/15 09:50:19;;;;;;;20.75;8.13;;;;;;;-144.30;43.63;83619.66;5107848;28;20190;-55
2023/08/15 09:52:55;;;;;;;7.40;6.72;;;;;;;-144.30;43.63;83667.34;5109098;28;20706;-55
2023/08/15 09:55:29;;;;;;;9.48;7.45;;;;;;;-144.30;44.03;83659.41;5109312;28;20234;-45
2023/08/15 09:57:58;;;;;;;8.35;7.65;;;;;;;-144.30;43.90;83679.28;5108597;28;20614;-45
2023/08/15 10:00:33;;;;;;;7.72;7.03;;;;;;;-144.30;44.22;83653.44;5109316;28;20584;-46
2023/08/15 10:03:20;;;;;;;8.55;7.57;;;;;;;-144.30;44.50;83623.66;5109165;28;20224;-54
2023/08/15 10:05:56;;;;;;;11.88;10.43;;;;;;;-144.30;45.34;83623.66;5112578;28;20653;-55
2023/08/15 10:08:30;;;;;;;13.75;12.55;;;;;;;-144.30;46.19;83583.91;5112770;28;20644;-45
2023/08/15 10:11:11;;;;;;;12.75;10.00;;;;;;;-144.30;47.29;83647.50;5112581;28;20194;-45
2023/08/15 10:13:41;;;;;;;11.52;10.45;;;;;;;-144.30;47.79;83615.69;5112168;28;20190;-45
2023/08/15 10:16:18;;;;;;;9.68;8.75;;;;;;;-144.30;48.15;83589.88;5112807;28;20194;-54
2023/08/15 10:19:03;;;;;;;13.20;9.40;;;;;;;-144.30;49.00;83591.84;5112111;28;20202;-45
2023/08/15 10:21:52;;;;;;;10.30;9.30;;;;;;;-144.30;49.68;83611.72;5112603;28;20266;-45
2023/08/15 10:24:26;;;;;;;9.45;8.55;;;;;;;-144.30;50.07;83625.63;5112394;28;20247;-45
2023/08/15 10:27:02;;;;;;;12.05;10.30;;;;;;;-144.30;50.39;83597.81;5112309;28;20228;-45
2023/08/15 10:29:39;;;;;;;50.67;26.25;;;;;;;-144.30;51.07;83649.47;5112423;28;20194;-56
2023/08/15 10:32:10;;;;;;;33.50;18.80;;;;;;;-144.30;51.44;83657.41;5112075;28;20210;-56
2023/08/15 10:34:51;;;;;;;24.65;15.98;;;;;;;-144.30;51.43;83683.25;5110896;28;20658;-56
2023/08/15 10:37:37;;;;;;;12.38;10.73;;;;;;;-144.30;52.00;83677.28;5112037;28;20233;-45
2023/08/15 10:40:13;;;;;;;10.55;8.90;;;;;;;-144.30;52.72;83713.06;5111458;28;20620;-45
2023/08/15 10:43:15;;;;;;;9.73;8.77;;;;;;;-144.30;52.80;83681.28;5112019;28;20198;-55
2023/08/15 10:45:52;;;;;;;9.30;8.40;;;;;;;-144.30;53.40;83683.25;5111821;28;20197;-55
2023/08/15 10:48:41;;;;;;;10.07;9.05;;;;;;;-144.30;53.12;83728.97;5112035;28;20241;-55
2023/08/15 10:51:22;;;;;;;11.80;10.35;;;;;;;-144.30;53.55;83693.19;5112014;28;20277;-55
2023/08/15 10:53:53;;;;;;;11.00;9.95;;;;;;;-144.30;54.01;83728.97;5111566;28;20638;-56
2023/08/15 10:56:25;;;;;;;13.88;11.15;;;;;;;-144.30;54.44;83726.97;5111702;28;20234;-55
2023/08/15 10:58:58;;;;;;;15.02;11.60;;;;;;;-144.30;55.18;83645.50;5110315;28;20234;-56
2023/08/15 11:01:30;;;;;;;14.07;10.57;;;;;;;-144.30;55.56;83796.50;5111797;28;20218;-46
2023/08/15 11:04:00;;;;;;;13.40;11.05;;;;;;;-144.30;55.54;83746.84;5110425;28;20277;-46
2023/08/15 11:06:30;;;;;;;10.88;9.70;;;;;;;-144.30;56.01;83738.88;5111601;28;20198;-46
2023/08/15 11:09:04;;;;;;;11.93;9.95;;;;;;;-144.30;56.46;83724.97;5111691;28;20259;-56
2023/08/15 11:11:37;;;;;;;11.60;9.63;;;;;;;-144.30;56.99;83774.66;5111499;28;20242;-55
2023/08/15 11:14:18;;;;;;;10.82;9.73;;;;;;;-144.30;57.13;83760.75;5111279;28;20203;-56
2023/08/15 11:16:50;;;;;;;11.73;10.35;;;;;;;-144.30;57.24;83742.88;5111211;28;20702;-56
2023/08/15 11:19:23;;;;;;;11.73;10.00;;;;;;;-144.30;57.02;83683.25;5111241;28;20201;-56
2023/08/15 11:21:52;;;;;;;9.40;8.70;;;;;;;-144.30;57.60;83734.91;5111021;28;20222;-56
2023/08/15 11:24:19;;;;;;;9.00;8.35;;;;;;;-144.30;57.80;83762.72;5111387;28;20200;-55
2023/08/15 11:26:51;;;;;;;10.27;9.23;;;;;;;-144.30;57.82;83724.97;5111109;28;20198;-56
2023/08/15 11:29:27;;;;;;;13.05;9.00;;;;;;;-144.30;58.07;83738.88;5111267;28;20240;-55
2023/08/15 11:31:58;;;;;;;11.18;8.93;;;;;;;-144.30;58.50;83760.75;5109832;28;20194;-45
2023/08/15 11:34:31;;;;;;;10.30;9.40;;;;;;;-144.30;58.51;83758.75;5090866;28;20195;-55
2023/08/15 11:37:01;;;;;;;10.38;9.48;;;;;;;-144.30;58.82;83796.50;5090889;28;20195;-55
2023/08/15 11:39:34;;;;;;;10.52;9.45;;;;;;;-144.30;59.49;83822.34;5106397;28;20265;-45
2023/08/15 11:42:08;;;;;;;10.15;9.13;;;;;;;-144.30;59.88;83802.47;5111025;28;20226;-55
2023/08/15 11:44:48;;;;;;;9.85;8.95;;;;;;;-144.30;60.32;83830.28;5110940;28;20305;-45
2023/08/15 11:47:22;;;;;;;12.82;9.73;;;;;;;-144.30;60.53;83802.47;5110716;28;20194;-55
2023/08/15 11:49:53;;;;;;;14.38;9.50;;;;;;;-144.30;60.41;83782.59;5110935;28;20201;-44
2023/08/15 11:52:24;;;;;;;12.18;8.90;;;;;;;-144.30;61.02;83850.16;5110051;28;20725;-55
2023/08/15 11:54:56;;;;;;;11.73;9.25;;;;;;;-144.30;61.04;83858.09;5110607;28;20201;-55
2023/08/15 11:57:41;;;;;;;13.35;9.73;;;;;;;-144.30;61.05;83818.38;5110735;28;20226;-55
2023/08/15 12:00:21;;;;;;;11.48;9.98;;;;;;;-144.30;60.79;83766.72;5110694;28;20233;-44
2023/08/15 12:03:04;;;;;;;10.90;9.80;;;;;;;-144.30;60.53;83786.56;5110324;28;20663;-55
2023/08/15 12:05:39;;;;;;;20.77;10.23;;;;;;;-144.30;60.74;83788.56;5110894;28;20637;-55
2023/08/15 12:08:15;;;;;;;9.95;9.05;;;;;;;-144.30;60.79;83782.59;5110614;28;20252;-45
2023/08/15 12:10:45;;;;;;;14.95;10.27;;;;;;;-144.30;60.99;83842.22;5110352;28;20232;-56
2023/08/15 12:13:14;;;;;;;14.98;9.40;;;;;;;-144.30;61.06;83810.41;5110273;28;20216;-55
2023/08/15 12:15:44;;;;;;;11.10;9.60;;;;;;;-144.30;60.87;83838.25;5110248;28;20198;-45
2023/08/15 12:18:16;;;;;;;12.10;9.80;;;;;;;-144.30;60.16;83800.50;5110556;28;20751;-45
2023/08/15 12:20:48;;;;;;;10.13;9.23;;;;;;;-144.30;60.09;83764.72;5110231;28;20378;-44
2023/08/15 12:23:18;;;;;;;12.18;8.73;;;;;;;-144.30;60.37;83764.72;5110353;28;20202;-45
2023/08/15 12:25:48;;;;;;;10.88;9.52;;;;;;;-144.30;60.48;83812.41;5109754;28;20256;-46
2023/08/15 12:28:20;;;;;;;14.10;10.27;;;;;;;-144.30;60.89;83796.50;5110380;28;20207;-45
2023/08/15 12:30:53;;;;;;;10.32;9.52;;;;;;;-144.30;60.98;83792.53;5110091;28;20190;-45
2023/08/15 12:33:32;;;;;;;10.50;9.52;;;;;;;-144.30;61.39;83798.50;5108272;28;20205;-45
2023/08/15 12:36:03;;;;;;;9.88;8.88;;;;;;;-144.30;61.27;83794.53;5109847;28;20672;-55
2023/08/15 12:38:37;;;;;;;17.42;10.25;;;;;;;-144.30;60.68;83788.56;5109563;28;20670;-54
2023/08/15 12:41:13;;;;;;;11.55;9.52;;;;;;;-144.30;60.94;83798.50;5109743;28;20218;-56
2023/08/15 12:43:42;;;;;;;14.40;9.85;;;;;;;-144.30;60.77;83723.00;5108834;28;20693;-55
2023/08/15 12:46:15;;;;;;;10.65;9.63;;;;;;;-144.30;60.32;83774.66;5109290;28;20197;-55
2023/08/15 12:48:47;;;;;;;10.25;9.15;;;;;;;-144.30;60.24;83756.78;5109832;28;20288;-45
2023/08/15 12:51:21;;;;;;;13.02;8.77;;;;;;;-144.30;59.92;83748.81;5109982;28;20230;-45
2023/08/15 12:53:54;;;;;;;16.00;9.63;;;;;;;-144.30;59.80;83754.78;5109661;28;20195;-45
2023/08/15 12:56:28;;;;;;;12.07;9.02;;;;;;;-144.30;59.95;83760.75;5110189;28;20201;-45
2023/08/15 12:58:58;;;;;;;11.88;10.10;;;;;;;-144.30;59.77;83738.88;5109467;28;20315;-55
2023/08/15 13:01:33;;;;;;;17.33;10.15;;;;;;;-144.30;59.95;83746.84;5109786;28;20393;-44
2023/08/15 13:04:10;;;;;;;33.35;11.95;;;;;;;-144.30;59.87;83754.78;5109593;28;20233;-55
2023/08/15 13:06:40;;;;;;;16.05;9.73;;;;;;;-144.30;59.96;83764.72;5099295;28;20203;-45
2023/08/15 13:09:11;;;;;;;14.15;9.20;;;;;;;-144.30;60.10;84426.47;5103336;28;20305;-54
2023/08/15 13:11:41;;;;;;;9.68;8.98;;;;;;;-144.30;60.07;83746.84;5109225;28;20693;-45
2023/08/15 13:14:11;;;;;;;10.75;9.80;;;;;;;-144.30;60.00;83715.03;5109605;28;20206;-44
2023/08/15 13:16:47;;;;;;;15.57;9.52;;;;;;;-144.30;59.39;83703.13;5109679;28;20200;-54
2023/08/15 13:19:21;;;;;;;10.82;8.88;;;;;;;-144.30;59.10;83705.09;5108440;28;20194;-45